Time;durP1;ratioP1;P1;durP2;ratioP2;P2;SDS_P1;SDS_P2;PMS_P1;PMS_P2;Temp;Humidity;BMP_temperature;BMP_pressure;BME280_temperature;BME280_humidity;BME280_pressure;Samples;Min_cycle;Max_cycle;Signal;HPM_P1;HPM_P2
2022/06/08 00:01:34;;;;;;;7.43;5.38;;;;;;;;;;6150245;23;20376;-82
2022/06/08 00:04:02;;;;;;;5.95;4.60;;;;;;;;;;6127260;23;20013;-84
2022/06/08 00:06:28;;;;;;;6.20;4.13;;;;;;;;;;6150514;23;20010;-84
2022/06/08 00:08:54;;;;;;;5.38;4.25;;;;;;;;;;6127063;23;20004;-84
2022/06/08 00:11:20;;;;;;;5.75;4.60;;;;;;;;;;6150485;23;20027;-84
2022/06/08 00:13:47;;;;;;;4.80;4.10;;;;;;;;;;6150520;23;20006;-84
2022/06/08 00:16:13;;;;;;;8.02;4.00;;;;;;;;;;6127343;23;20067;-84
2022/06/08 00:18:40;;;;;;;5.93;4.57;;;;;;;;;;6127223;23;20006;-84
2022/06/08 00:21:07;;;;;;;7.68;4.00;;;;;;;;;;6150369;23;20038;-84
2022/06/08 00:23:33;;;;;;;4.53;3.50;;;;;;;;;;6150402;23;20010;-83
2022/06/08 00:25:59;;;;;;;7.50;3.78;;;;;;;;;;6127076;23;20327;-84
2022/06/08 00:28:25;;;;;;;4.53;3.63;;;;;;;;;;6127494;23;20012;-84
2022/06/08 00:30:52;;;;;;;4.10;2.97;;;;;;;;;;6127292;23;20002;-84
2022/06/08 00:33:18;;;;;;;5.28;3.10;;;;;;;;;;6150207;23;19998;-84
2022/06/08 00:35:44;;;;;;;3.00;2.35;;;;;;;;;;6150320;23;20106;-84
2022/06/08 00:38:10;;;;;;;4.50;3.10;;;;;;;;;;6150127;23;20010;-84
2022/06/08 00:40:45;;;;;;;3.28;2.63;;;;;;;;;;6126943;23;20008;-84
2022/06/08 00:43:12;;;;;;;3.00;2.50;;;;;;;;;;6150254;23;20065;-83
2022/06/08 00:45:38;;;;;;;3.40;2.83;;;;;;;;;;6126375;23;19998;-83
2022/06/08 00:48:05;;;;;;;5.70;3.08;;;;;;;;;;6150039;23;20068;-84
2022/06/08 00:50:35;;;;;;;3.50;3.10;;;;;;;;;;6150235;23;20002;-84
2022/06/08 00:53:02;;;;;;;4.38;3.20;;;;;;;;;;6149392;23;20061;-84
2022/06/08 00:55:31;;;;;;;5.15;3.20;;;;;;;;;;6149655;23;20002;-84
2022/06/08 00:57:59;;;;;;;4.93;3.25;;;;;;;;;;6150346;23;20009;-84
2022/06/08 01:00:28;;;;;;;4.32;3.30;;;;;;;;;;6150198;23;20010;-84
2022/06/08 01:02:54;;;;;;;3.80;3.10;;;;;;;;;;6150133;23;20010;-85
2022/06/08 01:05:20;;;;;;;5.22;4.00;;;;;;;;;;6150346;23;20010;-83
2022/06/08 01:07:47;;;;;;;4.22;3.83;;;;;;;;;;6150028;23;20064;-83
2022/06/08 01:10:18;;;;;;;3.45;3.05;;;;;;;;;;6150236;23;20432;-84
2022/06/08 01:12:44;;;;;;;5.85;4.00;;;;;;;;;;6126856;23;20412;-84
2022/06/08 01:15:11;;;;;;;3.60;3.20;;;;;;;;;;6150136;23;20010;-84
2022/06/08 01:17:37;;;;;;;4.75;3.10;;;;;;;;;;6149587;23;20310;-86
2022/06/08 01:20:04;;;;;;;3.58;2.90;;;;;;;;;;6150157;23;20006;-84
2022/06/08 01:22:30;;;;;;;3.47;2.90;;;;;;;;;;6150200;23;20599;-84
2022/06/08 01:24:56;;;;;;;3.10;2.63;;;;;;;;;;6150227;23;20006;-84
2022/06/08 01:27:36;;;;;;;4.85;2.65;;;;;;;;;;6149760;23;20343;-84
2022/06/08 01:30:17;;;;;;;3.80;2.65;;;;;;;;;;6149782;23;20010;-84
2022/06/08 01:33:02;;;;;;;3.95;3.22;;;;;;;;;;6149978;23;20021;-85
2022/06/08 01:35:37;;;;;;;3.33;2.28;;;;;;;;;;6150258;23;20010;-84
2022/06/08 01:38:03;;;;;;;3.33;2.70;;;;;;;;;;6149999;23;20010;-86
2022/06/08 01:40:48;;;;;;;3.50;2.38;;;;;;;;;;6151682;23;20010;-84
2022/06/08 01:43:17;;;;;;;4.10;3.70;;;;;;;;;;6152001;23;20439;-85
2022/06/08 01:46:02;;;;;;;2.83;2.47;;;;;;;;;;6152052;23;20010;-84
2022/06/08 01:48:31;;;;;;;3.53;3.13;;;;;;;;;;6151804;23;20104;-83
2022/06/08 01:51:16;;;;;;;3.88;2.92;;;;;;;;;;6151969;23;20005;-85
2022/06/08 01:53:42;;;;;;;3.47;2.70;;;;;;;;;;6151910;23;20041;-84
2022/06/08 01:56:11;;;;;;;4.03;2.70;;;;;;;;;;6146888;23;20345;-85
2022/06/08 01:58:52;;;;;;;4.13;2.70;;;;;;;;;;6097715;23;20002;-86
2022/06/08 02:01:24;;;;;;;3.40;2.70;;;;;;;;;;6099547;23;20006;-84
2022/06/08 02:03:56;;;;;;;3.50;3.20;;;;;;;;;;6098182;23;20029;-84
2022/06/08 02:06:31;;;;;;;3.47;3.10;;;;;;;;;;6097997;23;20451;-85
2022/06/08 02:09:04;;;;;;;3.97;3.10;;;;;;;;;;6098059;23;20006;-84
2022/06/08 02:11:37;;;;;;;7.32;4.75;;;;;;;;;;6097970;23;20002;-83
2022/06/08 02:14:24;;;;;;;6.72;5.10;;;;;;;;;;6098349;23;20006;-85
2022/06/08 02:16:55;;;;;;;6.93;5.93;;;;;;;;;;6099411;23;20082;-83
2022/06/08 02:19:25;;;;;;;8.13;6.20;;;;;;;;;;6097827;23;20010;-83
2022/06/08 02:21:58;;;;;;;7.93;5.90;;;;;;;;;;6098004;23;20010;-85
2022/06/08 02:24:35;;;;;;;6.10;5.50;;;;;;;;;;6097661;23;20432;-84
2022/06/08 02:27:22;;;;;;;7.53;5.30;;;;;;;;;;6097576;23;20011;-86
2022/06/08 02:29:51;;;;;;;5.75;4.97;;;;;;;;;;6082933;23;20006;-84
2022/06/08 02:35:21;;;;;;;5.75;5.15;;;;;;;;;;6099385;23;20069;-84
2022/06/08 02:37:49;;;;;;;7.50;5.07;;;;;;;;;;6097861;23;20017;-84
2022/06/08 02:40:35;;;;;;;5.68;4.80;;;;;;;;;;6097710;23;20002;-84
2022/06/08 02:43:04;;;;;;;5.10;4.60;;;;;;;;;;6097902;23;20010;-83
2022/06/08 02:45:39;;;;;;;4.65;4.05;;;;;;;;;;6097282;23;20010;-85
2022/06/08 02:48:06;;;;;;;6.35;5.43;;;;;;;;;;6097664;23;20453;-86
2022/06/08 02:50:33;;;;;;;4.05;3.72;;;;;;;;;;6096873;23;20080;-84
2022/06/08 02:53:08;;;;;;;4.72;4.22;;;;;;;;;;6097367;23;20492;-83
2022/06/08 02:55:39;;;;;;;5.32;4.40;;;;;;;;;;6101070;23;20444;-86
2022/06/08 02:58:05;;;;;;;5.35;4.18;;;;;;;;;;6151631;23;20006;-86
2022/06/08 03:00:36;;;;;;;4.40;4.00;;;;;;;;;;6151317;23;20428;-84
2022/06/08 03:03:05;;;;;;;5.22;4.72;;;;;;;;;;6151505;23;20097;-84
2022/06/08 03:05:34;;;;;;;5.95;4.00;;;;;;;;;;6151263;23;20010;-84
2022/06/08 03:08:02;;;;;;;5.78;3.40;;;;;;;;;;6150681;23;20506;-84
2022/06/08 03:10:31;;;;;;;6.00;4.10;;;;;;;;;;6151016;23;20006;-84
2022/06/08 03:13:01;;;;;;;4.78;3.75;;;;;;;;;;6151182;23;20093;-84
2022/06/08 03:15:27;;;;;;;3.50;3.20;;;;;;;;;;6151175;23;20482;-84
2022/06/08 03:17:54;;;;;;;3.53;3.22;;;;;;;;;;6151063;23;20002;-84
2022/06/08 03:20:22;;;;;;;4.32;3.92;;;;;;;;;;6151238;23;20006;-86
2022/06/08 03:22:48;;;;;;;4.38;3.53;;;;;;;;;;6150773;23;20380;-85
2022/06/08 03:25:15;;;;;;;3.10;2.67;;;;;;;;;;6151365;23;20013;-85
2022/06/08 03:27:43;;;;;;;3.28;2.70;;;;;;;;;;6151086;23;20044;-84
2022/06/08 03:30:09;;;;;;;4.47;3.00;;;;;;;;;;6151358;23;20006;-85
2022/06/08 03:32:35;;;;;;;5.85;3.80;;;;;;;;;;6127613;23;20002;-85
2022/06/08 03:35:01;;;;;;;5.85;2.85;;;;;;;;;;6150962;23;20002;-84
2022/06/08 03:37:28;;;;;;;4.30;3.22;;;;;;;;;;6150854;23;20025;-84
2022/06/08 03:39:54;;;;;;;5.22;3.40;;;;;;;;;;6127782;23;20002;-84
2022/06/08 03:42:20;;;;;;;5.13;3.33;;;;;;;;;;6151021;23;20006;-84
2022/06/08 03:44:46;;;;;;;3.90;3.00;;;;;;;;;;6150707;23;20036;-84
2022/06/08 03:47:15;;;;;;;3.28;2.75;;;;;;;;;;6150882;23;20321;-84
2022/06/08 03:49:41;;;;;;;3.45;3.15;;;;;;;;;;6127761;23;20009;-84
2022/06/08 03:52:11;;;;;;;3.50;2.88;;;;;;;;;;6127605;23;20010;-85
2022/06/08 03:54:40;;;;;;;4.22;2.95;;;;;;;;;;6150747;23;20002;-84
2022/06/08 03:57:07;;;;;;;6.15;2.90;;;;;;;;;;6145330;23;20073;-84
2022/06/08 03:59:36;;;;;;;3.90;2.97;;;;;;;;;;6097038;23;20451;-85
2022/06/08 04:02:02;;;;;;;3.45;2.70;;;;;;;;;;6098037;23;20007;-85
2022/06/08 04:04:28;;;;;;;3.03;2.72;;;;;;;;;;6096660;23;20010;-85
2022/06/08 04:06:55;;;;;;;3.72;2.53;;;;;;;;;;6096285;23;20011;-84
2022/06/08 04:09:21;;;;;;;2.85;2.20;;;;;;;;;;6098264;23;20429;-84
2022/06/08 04:11:47;;;;;;;3.22;2.58;;;;;;;;;;6096615;23;20045;-84
2022/06/08 04:14:13;;;;;;;3.58;2.45;;;;;;;;;;6096842;23;20010;-84
2022/06/08 04:16:40;;;;;;;3.33;2.50;;;;;;;;;;6098113;23;20073;-84
2022/06/08 04:19:06;;;;;;;3.65;2.60;;;;;;;;;;6096729;23;20014;-84
2022/06/08 04:21:32;;;;;;;3.35;2.67;;;;;;;;;;6098016;23;19999;-84
2022/06/08 04:24:00;;;;;;;4.53;3.08;;;;;;;;;;6096495;23;20055;-84
2022/06/08 04:26:27;;;;;;;2.75;2.28;;;;;;;;;;6096966;23;20321;-84
2022/06/08 04:28:53;;;;;;;3.75;2.30;;;;;;;;;;6096645;23;20038;-84
2022/06/08 04:31:20;;;;;;;3.33;2.50;;;;;;;;;;6096289;23;20103;-81
2022/06/08 04:33:46;;;;;;;4.40;2.40;;;;;;;;;;6105418;23;20103;-85
2022/06/08 04:36:13;;;;;;;3.80;3.13;;;;;;;;;;6096165;23;20002;-84
2022/06/08 04:38:39;;;;;;;3.58;2.28;;;;;;;;;;6095282;23;20017;-83
2022/06/08 04:41:06;;;;;;;2.42;2.08;;;;;;;;;;6095517;23;20061;-84
2022/06/08 04:43:33;;;;;;;2.50;2.30;;;;;;;;;;6096033;23;20011;-84
2022/06/08 04:45:59;;;;;;;2.50;2.30;;;;;;;;;;6096305;23;20060;-83
2022/06/08 04:48:26;;;;;;;3.28;1.98;;;;;;;;;;6096290;23;20013;-83
2022/06/08 04:50:53;;;;;;;4.18;1.95;;;;;;;;;;6096085;23;20006;-82
2022/06/08 04:53:19;;;;;;;3.15;2.03;;;;;;;;;;6096517;23;20014;-83
2022/06/08 04:55:48;;;;;;;4.53;2.30;;;;;;;;;;6096303;23;20038;-84
2022/06/08 04:58:14;;;;;;;2.30;2.00;;;;;;;;;;6096564;23;20006;-83
2022/06/08 05:00:40;;;;;;;2.42;1.90;;;;;;;;;;6096193;23;20445;-86
2022/06/08 05:03:07;;;;;;;3.45;2.72;;;;;;;;;;6097630;23;20094;-84
2022/06/08 05:05:37;;;;;;;3.08;2.47;;;;;;;;;;6094111;23;20034;-79
2022/06/08 05:08:04;;;;;;;4.80;2.72;;;;;;;;;;6097870;23;20017;-83
2022/06/08 05:10:32;;;;;;;2.60;2.25;;;;;;;;;;6097812;23;19998;-83
2022/06/08 05:12:59;;;;;;;2.53;1.95;;;;;;;;;;6095865;23;20003;-81
2022/06/08 05:15:28;;;;;;;3.25;2.00;;;;;;;;;;6097823;23;20007;-83
2022/06/08 05:17:54;;;;;;;2.60;2.10;;;;;;;;;;6106266;23;20012;-79
2022/06/08 05:20:21;;;;;;;2.80;1.80;;;;;;;;;;6096842;23;20010;-85
2022/06/08 05:22:47;;;;;;;3.72;2.15;;;;;;;;;;6096820;23;20010;-87
2022/06/08 05:25:15;;;;;;;2.83;1.77;;;;;;;;;;6096158;23;20017;-84
2022/06/08 05:27:42;;;;;;;3.53;2.10;;;;;;;;;;6096175;23;20508;-89
2022/06/08 05:30:12;;;;;;;3.35;2.15;;;;;;;;;;6096499;23;20003;-85
2022/06/08 05:32:47;;;;;;;2.63;2.13;;;;;;;;;;6097081;23;20066;-90
2022/06/08 05:35:13;;;;;;;2.40;2.03;;;;;;;;;;6097973;23;20010;-80
2022/06/08 05:37:39;;;;;;;2.90;2.20;;;;;;;;;;6097245;23;20077;-80
2022/06/08 05:40:09;;;;;;;4.45;2.80;;;;;;;;;;6096151;23;20484;-87
2022/06/08 05:42:35;;;;;;;3.78;2.22;;;;;;;;;;6096400;23;20007;-84
2022/06/08 05:45:01;;;;;;;4.80;2.88;;;;;;;;;;6096368;23;20007;-83
2022/06/08 05:47:28;;;;;;;2.85;2.50;;;;;;;;;;6096431;23;20014;-85
2022/06/08 05:49:54;;;;;;;5.10;2.60;;;;;;;;;;6097425;23;20003;-85
2022/06/08 05:52:20;;;;;;;5.05;3.30;;;;;;;;;;6096558;23;20515;-82
2022/06/08 05:54:47;;;;;;;4.47;3.30;;;;;;;;;;6096582;23;20057;-84
2022/06/08 05:57:14;;;;;;;6.70;4.32;;;;;;;;;;6101351;23;20024;-85
2022/06/08 05:59:40;;;;;;;5.22;4.72;;;;;;;;;;6150335;23;20012;-86
2022/06/08 06:02:07;;;;;;;4.80;4.00;;;;;;;;;;6150163;23;20016;-84
2022/06/08 06:04:33;;;;;;;4.22;3.78;;;;;;;;;;6150521;23;20005;-86
2022/06/08 06:06:59;;;;;;;4.07;3.67;;;;;;;;;;6149938;23;20424;-85
2022/06/08 06:09:26;;;;;;;4.05;3.65;;;;;;;;;;6150033;23;20002;-85
2022/06/08 06:11:52;;;;;;;4.85;3.63;;;;;;;;;;6150758;23;20439;-86
2022/06/08 06:14:19;;;;;;;5.10;3.53;;;;;;;;;;6127131;23;20118;-88
2022/06/08 06:16:45;;;;;;;6.43;4.80;;;;;;;;;;6127497;23;20010;-86
2022/06/08 06:19:11;;;;;;;7.45;5.32;;;;;;;;;;6150449;23;20020;-87
2022/06/08 06:21:37;;;;;;;7.32;5.70;;;;;;;;;;6150116;23;20006;-86
2022/06/08 06:24:07;;;;;;;6.10;4.50;;;;;;;;;;6127653;23;20002;-89
2022/06/08 06:26:33;;;;;;;6.10;3.97;;;;;;;;;;6152461;23;20037;-86
2022/06/08 06:28:59;;;;;;;8.02;5.90;;;;;;;;;;6152054;23;20050;-85
2022/06/08 06:31:28;;;;;;;9.05;6.65;;;;;;;;;;6151543;23;20009;-82
2022/06/08 06:33:54;;;;;;;9.50;6.43;;;;;;;;;;6151810;23;20432;-81
2022/06/08 06:36:20;;;;;;;6.30;5.20;;;;;;;;;;6152011;23;20006;-88
2022/06/08 06:38:46;;;;;;;6.13;5.53;;;;;;;;;;6151769;23;20085;-84
2022/06/08 06:41:16;;;;;;;6.65;5.60;;;;;;;;;;6151860;23;20001;-88
2022/06/08 06:43:43;;;;;;;5.80;5.20;;;;;;;;;;6128657;23;20006;-82
2022/06/08 06:46:13;;;;;;;6.50;5.72;;;;;;;;;;6128725;23;20002;-87
2022/06/08 06:48:39;;;;;;;6.13;5.45;;;;;;;;;;6151558;23;20006;-84
2022/06/08 06:51:09;;;;;;;5.57;5.03;;;;;;;;;;6151846;23;20372;-83
2022/06/08 06:53:35;;;;;;;6.70;6.10;;;;;;;;;;6151589;23;20013;-86
2022/06/08 06:56:01;;;;;;;7.05;5.13;;;;;;;;;;6146984;23;20064;-83
2022/06/08 06:58:28;;;;;;;5.25;4.75;;;;;;;;;;6097750;23;20076;-86
2022/06/08 07:00:54;;;;;;;6.25;4.65;;;;;;;;;;6097727;23;20436;-84
2022/06/08 07:03:21;;;;;;;4.75;4.35;;;;;;;;;;6097842;23;20089;-85
2022/06/08 07:05:47;;;;;;;4.28;3.88;;;;;;;;;;6097782;23;20432;-83
2022/06/08 07:08:14;;;;;;;8.18;4.22;;;;;;;;;;6098003;23;20041;-88
2022/06/08 07:10:40;;;;;;;3.72;3.03;;;;;;;;;;6097821;23;20002;-89
2022/06/08 07:13:06;;;;;;;3.90;3.25;;;;;;;;;;6099209;23;20002;-87
2022/06/08 07:15:33;;;;;;;3.92;3.20;;;;;;;;;;6097815;23;20009;-87
2022/06/08 07:18:05;;;;;;;4.28;3.17;;;;;;;;;;6097774;23;20018;-87
2022/06/08 07:20:31;;;;;;;3.60;3.05;;;;;;;;;;6097454;23;20479;-86
2022/06/08 07:22:57;;;;;;;3.75;2.78;;;;;;;;;;6097507;23;20045;-85
2022/06/08 07:25:26;;;;;;;4.30;2.78;;;;;;;;;;6098259;23;20033;-85
2022/06/08 07:27:52;;;;;;;3.65;2.70;;;;;;;;;;6097770;23;20014;-85
2022/06/08 07:30:18;;;;;;;3.22;2.67;;;;;;;;;;6097576;23;20054;-83
2022/06/08 07:32:47;;;;;;;3.55;2.85;;;;;;;;;;6097538;23;20336;-86
2022/06/08 07:35:13;;;;;;;5.70;2.58;;;;;;;;;;6097651;23;20006;-87
2022/06/08 07:37:39;;;;;;;4.90;2.30;;;;;;;;;;6097444;23;20014;-87
2022/06/08 07:40:08;;;;;;;3.80;2.30;;;;;;;;;;6097336;23;20029;-87
2022/06/08 07:42:36;;;;;;;3.60;2.40;;;;;;;;;;6097722;23;20349;-89
2022/06/08 07:45:22;;;;;;;2.80;2.22;;;;;;;;;;6098111;23;20065;-90
2022/06/08 07:50:33;;;;;;;3.47;2.00;;;;;;;;;;6099029;23;20045;-89
2022/06/08 07:53:18;;;;;;;4.32;1.80;;;;;;;;;;6097503;23;20006;-88
2022/06/08 07:55:45;;;;;;;4.60;2.22;;;;;;;;;;6106761;23;20018;-86
2022/06/08 07:58:14;;;;;;;2.65;2.00;;;;;;;;;;6150908;23;20018;-86
2022/06/08 08:00:47;;;;;;;3.78;2.22;;;;;;;;;;6150982;23;20436;-87
2022/06/08 08:03:21;;;;;;;3.95;2.00;;;;;;;;;;6151819;23;20013;-86
2022/06/08 08:05:51;;;;;;;5.28;2.33;;;;;;;;;;6150550;23;20061;-88
2022/06/08 08:08:21;;;;;;;3.05;2.13;;;;;;;;;;6127473;23;20080;-87
2022/06/08 08:10:53;;;;;;;5.57;2.00;;;;;;;;;;6150847;23;20006;-87
2022/06/08 08:13:25;;;;;;;5.18;2.10;;;;;;;;;;6150871;23;20088;-92
2022/06/08 08:15:52;;;;;;;2.28;1.80;;;;;;;;;;6150789;23;20089;-82
2022/06/08 08:18:18;;;;;;;3.03;2.10;;;;;;;;;;6151028;23;20080;-85
2022/06/08 08:20:44;;;;;;;3.88;2.50;;;;;;;;;;6127343;23;20005;-82
2022/06/08 08:23:10;;;;;;;3.85;2.10;;;;;;;;;;6150033;23;20094;-81
2022/06/08 08:25:36;;;;;;;5.25;2.70;;;;;;;;;;6150175;23;20010;-82
2022/06/08 08:28:03;;;;;;;2.60;2.00;;;;;;;;;;6126496;23;20045;-81
2022/06/08 08:30:30;;;;;;;3.03;2.33;;;;;;;;;;6149853;23;20002;-83
2022/06/08 08:32:56;;;;;;;4.20;2.15;;;;;;;;;;6127594;23;20072;-82
2022/06/08 08:35:24;;;;;;;3.22;2.17;;;;;;;;;;6150935;23;20002;-82
2022/06/08 08:37:50;;;;;;;2.72;2.00;;;;;;;;;;6149709;23;20034;-84
2022/06/08 08:40:20;;;;;;;3.40;2.10;;;;;;;;;;6149025;23;20093;-82
2022/06/08 08:42:47;;;;;;;5.05;2.30;;;;;;;;;;6150486;23;20081;-83
2022/06/08 08:45:14;;;;;;;2.80;2.13;;;;;;;;;;6147740;23;20428;-84
2022/06/08 08:47:43;;;;;;;2.90;2.20;;;;;;;;;;6149627;23;20013;-88
2022/06/08 08:50:42;;;;;;;2.83;2.30;;;;;;;;;;6149209;23;20021;-82
2022/06/08 08:53:23;;;;;;;3.85;2.63;;;;;;;;;;6068595;23;20145;-87
2022/06/08 08:55:58;;;;;;;4.18;2.80;;;;;;;;;;6144873;23;20021;-83
2022/06/08 08:58:34;;;;;;;3.17;2.30;;;;;;;;;;6096124;23;20066;-83
2022/06/08 09:01:02;;;;;;;4.15;2.92;;;;;;;;;;6096406;23;20021;-85
2022/06/08 09:03:32;;;;;;;5.78;3.15;;;;;;;;;;6096221;23;20077;-83
2022/06/08 09:06:03;;;;;;;3.50;3.00;;;;;;;;;;6096147;23;20085;-82
2022/06/08 09:08:29;;;;;;;5.13;3.35;;;;;;;;;;6095857;23;20018;-83
2022/06/08 09:10:59;;;;;;;5.07;2.72;;;;;;;;;;6094703;23;20022;-82
2022/06/08 09:13:31;;;;;;;4.22;3.10;;;;;;;;;;6095585;23;20006;-82
2022/06/08 09:15:59;;;;;;;3.75;3.15;;;;;;;;;;6095857;23;20077;-89
2022/06/08 09:18:29;;;;;;;4.25;3.05;;;;;;;;;;6097917;23;20003;-83
2022/06/08 09:20:55;;;;;;;5.85;3.20;;;;;;;;;;6096152;23;20436;-81
2022/06/08 09:23:24;;;;;;;4.75;3.40;;;;;;;;;;6097399;23;20095;-80
2022/06/08 09:26:05;;;;;;;3.78;3.20;;;;;;;;;;6097104;23;20012;-80
2022/06/08 09:28:32;;;;;;;4.10;3.35;;;;;;;;;;6095216;23;20471;-87
2022/06/08 09:30:59;;;;;;;4.50;3.13;;;;;;;;;;6095522;23;20010;-85
2022/06/08 09:33:27;;;;;;;5.13;3.28;;;;;;;;;;6095821;23;20007;-79
2022/06/08 09:35:57;;;;;;;5.45;3.22;;;;;;;;;;6095773;23;20003;-80
2022/06/08 09:38:25;;;;;;;3.67;2.70;;;;;;;;;;6097263;23;19999;-81
2022/06/08 09:40:54;;;;;;;4.05;3.30;;;;;;;;;;6095698;23;20021;-82
2022/06/08 09:43:23;;;;;;;3.88;3.08;;;;;;;;;;6095606;23;20094;-88
2022/06/08 09:46:19;;;;;;;4.70;3.22;;;;;;;;;;6095363;23;20013;-81
2022/06/08 09:51:57;;;;;;;3.95;2.58;;;;;;;;;;6096962;23;20455;-81
2022/06/08 09:54:42;;;;;;;3.92;2.67;;;;;;;;;;6095768;23;20006;-80
2022/06/08 09:57:21;;;;;;;3.92;2.67;;;;;;;;;;6100014;23;20049;-80
2022/06/08 09:59:53;;;;;;;3.13;2.80;;;;;;;;;;6150097;23;20082;-82
2022/06/08 10:02:38;;;;;;;6.80;2.90;;;;;;;;;;6150615;23;20148;-80
2022/06/08 10:05:23;;;;;;;5.05;2.53;;;;;;;;;;6150945;23;20002;-85
2022/06/08 10:08:01;;;;;;;3.30;2.55;;;;;;;;;;6128121;23;20092;-81
2022/06/08 10:10:27;;;;;;;3.65;3.00;;;;;;;;;;6150787;23;20006;-81
2022/06/08 10:13:01;;;;;;;3.67;2.70;;;;;;;;;;6151118;23;20010;-83
2022/06/08 10:15:37;;;;;;;3.28;2.78;;;;;;;;;;6150873;23;20013;-81
2022/06/08 10:18:15;;;;;;;2.70;2.38;;;;;;;;;;6151168;23;20084;-82
2022/06/08 10:20:45;;;;;;;2.85;2.50;;;;;;;;;;6151004;23;20013;-81
2022/06/08 10:23:35;;;;;;;3.53;2.30;;;;;;;;;;6150728;23;20020;-82
2022/06/08 10:26:01;;;;;;;3.15;2.63;;;;;;;;;;6094960;23;20005;-84
2022/06/08 10:28:36;;;;;;;2.80;2.40;;;;;;;;;;6151034;23;20463;-80
2022/06/08 10:31:06;;;;;;;4.28;2.97;;;;;;;;;;6150552;23;20017;-80
2022/06/08 10:33:51;;;;;;;2.88;2.55;;;;;;;;;;6150956;23;20054;-80
2022/06/08 10:36:17;;;;;;;4.28;2.63;;;;;;;;;;6127269;23;20033;-80
2022/06/08 10:38:44;;;;;;;4.18;2.67;;;;;;;;;;6150623;23;20076;-82
2022/06/08 10:43:55;;;;;;;4.10;2.58;;;;;;;;;;6128244;23;20064;-83
2022/06/08 10:46:32;;;;;;;3.10;2.70;;;;;;;;;;6150951;23;20021;-83
2022/06/08 10:48:58;;;;;;;5.28;2.63;;;;;;;;;;6127808;23;20009;-83
2022/06/08 10:51:37;;;;;;;4.60;2.50;;;;;;;;;;6150454;23;20009;-86
2022/06/08 10:57:29;;;;;;;3.33;2.80;;;;;;;;;;6127493;23;20025;-81
2022/06/08 11:00:13;;;;;;;3.05;2.33;;;;;;;;;;6150921;23;20353;-81
2022/06/08 11:02:41;;;;;;;3.05;2.63;;;;;;;;;;6127560;23;20002;-80
2022/06/08 11:05:08;;;;;;;3.72;2.38;;;;;;;;;;6150590;23;20343;-83
2022/06/08 11:07:54;;;;;;;4.75;2.75;;;;;;;;;;6150265;23;20041;-81
2022/06/08 11:10:40;;;;;;;2.95;2.20;;;;;;;;;;6150203;23;20006;-81
2022/06/08 11:13:14;;;;;;;2.85;2.30;;;;;;;;;;6150769;23;20016;-81
2022/06/08 11:15:48;;;;;;;3.17;2.22;;;;;;;;;;6150907;23;20064;-80
2022/06/08 11:18:38;;;;;;;3.90;2.45;;;;;;;;;;6150433;23;20014;-82
2022/06/08 11:21:10;;;;;;;3.45;2.60;;;;;;;;;;6093825;23;20029;-81
2022/06/08 11:23:43;;;;;;;3.03;2.45;;;;;;;;;;6150486;23;20010;-85
2022/06/08 11:26:10;;;;;;;3.53;2.80;;;;;;;;;;6150761;23;20012;-84
2022/06/08 11:28:43;;;;;;;3.90;2.47;;;;;;;;;;6150755;23;20012;-82
2022/06/08 11:31:28;;;;;;;3.95;2.80;;;;;;;;;;6150055;23;20427;-80
2022/06/08 11:34:09;;;;;;;4.32;2.20;;;;;;;;;;6150599;23;20376;-84
2022/06/08 11:36:44;;;;;;;2.80;2.00;;;;;;;;;;6150278;23;20006;-85
2022/06/08 11:39:19;;;;;;;3.45;2.00;;;;;;;;;;6150814;23;20313;-80
2022/06/08 11:41:56;;;;;;;2.75;2.15;;;;;;;;;;6150688;23;20034;-85
2022/06/08 11:44:22;;;;;;;2.78;2.38;;;;;;;;;;6150185;23;20403;-80
2022/06/08 11:46:50;;;;;;;3.17;2.22;;;;;;;;;;6149937;23;20084;-80
2022/06/08 11:49:34;;;;;;;2.80;2.10;;;;;;;;;;6150515;23;20480;-81
2022/06/08 11:52:16;;;;;;;2.55;2.33;;;;;;;;;;6150791;23;20020;-80
2022/06/08 11:54:42;;;;;;;2.67;2.08;;;;;;;;;;6150112;23;20088;-80
2022/06/08 11:57:16;;;;;;;2.38;2.00;;;;;;;;;;6144533;23;20500;-80
2022/06/08 11:59:47;;;;;;;2.40;2.00;;;;;;;;;;6096163;23;20014;-80
2022/06/08 12:02:18;;;;;;;3.05;1.98;;;;;;;;;;6095974;23;20328;-79
2022/06/08 12:04:47;;;;;;;4.88;2.38;;;;;;;;;;6098425;23;20010;-81
2022/06/08 12:07:26;;;;;;;2.92;2.20;;;;;;;;;;6096781;23;20046;-84
2022/06/08 12:09:52;;;;;;;3.65;2.40;;;;;;;;;;6096476;23;20014;-85
2022/06/08 12:12:20;;;;;;;3.13;2.17;;;;;;;;;;6096620;23;20006;-81
2022/06/08 12:14:47;;;;;;;2.95;2.30;;;;;;;;;;6096122;23;20009;-81
2022/06/08 12:17:13;;;;;;;5.57;2.65;;;;;;;;;;6098076;23;20003;-84
2022/06/08 12:19:44;;;;;;;3.15;2.40;;;;;;;;;;6096777;23;20314;-81
2022/06/08 12:22:16;;;;;;;3.00;2.20;;;;;;;;;;6096131;23;20070;-80
2022/06/08 12:24:43;;;;;;;2.92;2.33;;;;;;;;;;6095367;23;20017;-88
2022/06/08 12:27:20;;;;;;;2.72;2.22;;;;;;;;;;6096476;23;20420;-84
2022/06/08 12:29:50;;;;;;;3.15;2.30;;;;;;;;;;6096601;23;20006;-88
2022/06/08 12:32:16;;;;;;;3.25;2.35;;;;;;;;;;6096517;23;20002;-87
2022/06/08 12:34:45;;;;;;;4.05;2.30;;;;;;;;;;6096142;23;20007;-80
2022/06/08 12:37:23;;;;;;;4.07;2.58;;;;;;;;;;6094773;23;20523;-80
2022/06/08 12:39:50;;;;;;;3.15;2.10;;;;;;;;;;6095954;23;20006;-81
2022/06/08 12:42:25;;;;;;;3.50;2.50;;;;;;;;;;6095795;23;20013;-87
2022/06/08 12:44:53;;;;;;;3.65;2.50;;;;;;;;;;6098456;23;20081;-81
2022/06/08 12:47:19;;;;;;;4.30;2.60;;;;;;;;;;6096202;23;20025;-87
2022/06/08 12:49:51;;;;;;;3.10;2.40;;;;;;;;;;6096340;23;20105;-82
2022/06/08 12:52:21;;;;;;;3.90;2.67;;;;;;;;;;6097800;23;20007;-81
2022/06/08 12:54:48;;;;;;;4.57;2.45;;;;;;;;;;6096310;23;20002;-80
2022/06/08 12:57:17;;;;;;;3.40;2.50;;;;;;;;;;6100664;23;20029;-80
2022/06/08 12:59:44;;;;;;;3.17;2.40;;;;;;;;;;6149531;23;20006;-85
2022/06/08 13:02:12;;;;;;;3.33;2.58;;;;;;;;;;6149512;23;20069;-81
2022/06/08 13:04:38;;;;;;;4.05;2.60;;;;;;;;;;6149431;23;20006;-81
2022/06/08 13:07:04;;;;;;;3.05;2.10;;;;;;;;;;6149016;23;20013;-80
2022/06/08 13:09:30;;;;;;;2.70;2.30;;;;;;;;;;6130872;23;20017;-87
2022/06/08 13:11:58;;;;;;;2.75;2.35;;;;;;;;;;6101035;23;20096;-83
2022/06/08 13:14:25;;;;;;;2.95;2.30;;;;;;;;;;6100735;23;20013;-82
2022/06/08 13:16:51;;;;;;;3.30;2.20;;;;;;;;;;6101614;23;20061;-81
2022/06/08 13:19:17;;;;;;;3.05;2.22;;;;;;;;;;6100670;23;20016;-81
2022/06/08 13:21:44;;;;;;;2.80;2.20;;;;;;;;;;6126486;23;20006;-81
2022/06/08 13:24:11;;;;;;;3.85;2.75;;;;;;;;;;6126603;23;19998;-81
2022/06/08 13:26:38;;;;;;;3.30;2.22;;;;;;;;;;6100290;23;20360;-81
2022/06/08 13:29:05;;;;;;;2.80;2.42;;;;;;;;;;6100626;23;20016;-81
2022/06/08 13:31:31;;;;;;;2.97;2.30;;;;;;;;;;6100680;23;20056;-82
2022/06/08 13:34:04;;;;;;;2.50;2.17;;;;;;;;;;6126460;23;20006;-81
2022/06/08 13:36:33;;;;;;;2.92;2.42;;;;;;;;;;6128583;23;20008;-81
2022/06/08 13:38:59;;;;;;;4.47;2.60;;;;;;;;;;6102216;23;20060;-81
2022/06/08 13:41:26;;;;;;;4.95;3.00;;;;;;;;;;6102491;23;20072;-85
2022/06/08 13:43:52;;;;;;;3.75;3.00;;;;;;;;;;6102531;23;20014;-84
2022/06/08 13:46:23;;;;;;;3.45;2.88;;;;;;;;;;6102920;23;20336;-84
2022/06/08 13:48:49;;;;;;;4.25;3.15;;;;;;;;;;6106482;23;20069;-82
2022/06/08 13:51:16;;;;;;;5.22;3.10;;;;;;;;;;6104446;23;20388;-85
2022/06/08 13:53:42;;;;;;;3.72;3.30;;;;;;;;;;6102901;23;20683;-81
2022/06/08 13:56:11;;;;;;;4.85;3.20;;;;;;;;;;6106678;23;20052;-82
2022/06/08 13:58:37;;;;;;;4.70;2.83;;;;;;;;;;6127973;23;20081;-81
2022/06/08 14:01:12;;;;;;;4.32;3.33;;;;;;;;;;6101582;23;20005;-79
2022/06/08 14:03:38;;;;;;;3.33;3.00;;;;;;;;;;6128092;23;20008;-81
2022/06/08 14:14:22;;;;;;;4.80;2.92;;;;;;;;;;6127687;23;20065;-85
2022/06/08 14:16:55;;;;;;;4.43;3.40;;;;;;;;;;6101681;23;20041;-80
2022/06/08 14:19:24;;;;;;;3.92;3.13;;;;;;;;;;6101961;23;20436;-80
2022/06/08 14:21:51;;;;;;;3.78;3.08;;;;;;;;;;6104900;23;20029;-79
2022/06/08 14:24:46;;;;;;;4.63;2.78;;;;;;;;;;6102147;23;20086;-83
2022/06/08 14:27:14;;;;;;;4.47;2.80;;;;;;;;;;6084041;23;20010;-80
2022/06/08 14:29:40;;;;;;;5.10;3.25;;;;;;;;;;6101934;23;20080;-79
2022/06/08 14:32:18;;;;;;;3.17;2.60;;;;;;;;;;6102040;23;20344;-81
2022/06/08 14:34:45;;;;;;;4.25;2.78;;;;;;;;;;6102211;23;20014;-79
2022/06/08 14:37:13;;;;;;;4.57;2.50;;;;;;;;;;6102283;23;20036;-79
2022/06/08 14:39:39;;;;;;;3.08;2.60;;;;;;;;;;6102422;23;20013;-80
2022/06/08 14:42:06;;;;;;;3.53;3.05;;;;;;;;;;6102109;23;20010;-80
2022/06/08 14:44:32;;;;;;;3.50;2.72;;;;;;;;;;6102068;23;20002;-79
2022/06/08 14:47:08;;;;;;;3.28;2.80;;;;;;;;;;6102048;23;20046;-79
2022/06/08 14:49:37;;;;;;;4.70;2.83;;;;;;;;;;6101947;23;20061;-80
2022/06/08 14:52:04;;;;;;;3.45;2.88;;;;;;;;;;6127824;23;20006;-79
2022/06/08 14:57:35;;;;;;;3.75;2.80;;;;;;;;;;6127608;23;20392;-81
2022/06/08 15:00:07;;;;;;;3.00;2.55;;;;;;;;;;6102049;23;20554;-84
2022/06/08 15:02:39;;;;;;;2.63;2.17;;;;;;;;;;6102046;23;20475;-81
2022/06/08 15:05:07;;;;;;;3.63;2.35;;;;;;;;;;6101395;23;20002;-80
2022/06/08 15:07:34;;;;;;;3.33;2.65;;;;;;;;;;6101321;23;20047;-80
2022/06/08 15:10:01;;;;;;;2.85;2.40;;;;;;;;;;6101007;23;20002;-81
2022/06/08 15:12:29;;;;;;;4.50;2.70;;;;;;;;;;6101338;23;20005;-79
2022/06/08 15:14:58;;;;;;;4.35;2.80;;;;;;;;;;6100869;23;20012;-81
2022/06/08 15:17:28;;;;;;;3.58;2.92;;;;;;;;;;6101229;23;20006;-81
2022/06/08 15:19:56;;;;;;;4.13;3.00;;;;;;;;;;6127090;23;20577;-79
2022/06/08 15:22:23;;;;;;;3.78;3.13;;;;;;;;;;6101291;23;20014;-79
2022/06/08 15:24:49;;;;;;;3.20;2.75;;;;;;;;;;6101602;23;20002;-79